Terminal Aerodrome Forecast
Issued by NWS

Home | Current Version | Previous Version | Text Only | Print | Product List | Glossary On
Versions: 1 2 3 4 5 6 7 8 9 10 11 12 13 14 15 16
000
FTUS45 KABQ 271700 RRA
TAFFMN
TAF
KFMN 271741Z 2718/2818 23007KT P6SM SCT040
     FM272000 25008G15KT P6SM VCSH BKN080
      TEMPO 2722/2801 -SHRA BKN070
     FM280100 28011KT P6SM SCT090
     FM280300 30005KT P6SM SKC=

USA.gov is the U.S. government's official web portal to all federal, state and local government web resources and services.